This is the latest recevied weather packets stored in our database for station/object KF6YUA. If no packets are shown the sender has not sent any weather packets the latest 10 day(s).
| Time | Temp. | Humidity | Pressure | Rain* | Wind** | Luminosity | Snow |
|---|---|---|---|---|---|---|---|
| 1777064048 | 17.22° C | 71% | 1015.3 hPa | 0 mm | - | 603 W/m² | - |
| 1777063747 | 16.67° C | 71% | 1015.3 hPa | 0 mm | - | 574 W/m² | - |
| 1777063443 | 17.22° C | 68% | 1015.3 hPa | 0 mm | - | 526 W/m² | - |
| 1777063139 | 17.22° C | 72% | 1015.1 hPa | 0 mm | - | 555 W/m² | - |
| 1777062836 | 16.67° C | 72% | 1015.4 hPa | 0 mm | - | 577 W/m² | - |
| 1777062531 | 16.67° C | 71% | 1015.3 hPa | 0 mm | - | 542 W/m² | - |
| 1777062225 | 16.11° C | 73% | 1015.2 hPa | 0 mm | - | 504 W/m² | - |
| 1777061923 | 15.56° C | 73% | 1015.3 hPa | 0 mm | - | 551 W/m² | - |
| 1777061619 | 16.67° C | 72% | 1015.5 hPa | 0 mm | - | 624 W/m² | - |
| 1777061315 | 16.11° C | 73% | 1015.5 hPa | 0 mm | - | 606 W/m² | - |
| 1777061010 | 16.11° C | 74% | 1015.7 hPa | 0 mm | - | 585 W/m² | - |
| 1777060706 | 16.67° C | 74% | 1015.7 hPa | 0 mm | - | 641 W/m² | - |
| 1777060401 | 16.67° C | 75% | 1015.7 hPa | 0 mm | - | 264 W/m² | - |
| 1777060098 | 16.67° C | 76% | 1015.6 hPa | 0 mm | - | 659 W/m² | - |
| 1777059794 | 16.11° C | 77% | 1015.7 hPa | 0 mm | - | 242 W/m² | - |
| 1777059491 | 16.11° C | 77% | 1015.9 hPa | 0 mm | - | 210 W/m² | - |
| 1777059188 | 15.56° C | 76% | 1015.9 hPa | 0 mm | - | 762 W/m² | - |
| 1777058883 | 17.22° C | 75% | 1015.7 hPa | 0 mm | - | 771 W/m² | - |
| 1777058577 | 15.56° C | 78% | 1015.8 hPa | 0 mm | - | 823 W/m² | - |
| 1777058275 | 17.22° C | 72% | 1016 hPa | 0 mm | - | 673 W/m² | - |
| 1777057971 | 16.11° C | 72% | 1015.9 hPa | 0 mm | - | 669 W/m² | - |
| 1777057670 | 17.22° C | 73% | 1016 hPa | 0 mm | - | 630 W/m² | - |
| 1777057366 | 17.22° C | 74% | 1016 hPa | 0 mm | - | 762 W/m² | - |
| 1777057062 | 17.22° C | 75% | 1016.2 hPa | 0 mm | - | 280 W/m² | - |
| 1777056762 | 16.11° C | 74% | 1016.1 hPa | 0 mm | - | 604 W/m² | - |
* Rain latest hour (hover to see other rain measurements)
** Current wind speed in m/s (hover to see current wind gust speed)